createdAt,value
2017-08-11T00:02:03.455Z,16.90
2017-08-11T00:04:31.709Z,17.00
2017-08-11T00:06:59.233Z,16.90
2017-08-11T00:09:26.696Z,17.00
2017-08-11T00:11:54.166Z,17.00
2017-08-11T00:14:22.276Z,17.00
2017-08-11T00:16:50.500Z,16.90
2017-08-11T00:19:17.970Z,16.90
2017-08-11T00:21:45.458Z,16.90
2017-08-11T00:24:12.926Z,16.90
2017-08-11T00:26:41.152Z,16.80
2017-08-11T00:29:08.640Z,16.80
2017-08-11T00:31:36.108Z,16.80
2017-08-11T00:34:03.566Z,16.90
2017-08-11T00:36:31.817Z,16.80
2017-08-11T00:38:59.289Z,16.80
2017-08-11T00:41:26.757Z,16.80
2017-08-11T00:43:54.988Z,16.90
2017-08-11T00:46:22.469Z,16.80
2017-08-11T00:48:49.931Z,16.80
2017-08-11T00:51:17.405Z,16.80
2017-08-11T00:53:45.652Z,16.80
2017-08-11T00:56:13.842Z,16.80
2017-08-11T00:58:41.960Z,16.80
2017-08-11T01:01:09.450Z,16.80
2017-08-11T01:03:36.917Z,16.80
2017-08-11T01:06:04.545Z,16.80
2017-08-11T01:08:32.026Z,16.70
2017-08-11T01:10:59.509Z,16.70
2017-08-11T01:13:27.737Z,16.60
2017-08-11T01:15:56.057Z,16.60
2017-08-11T01:18:24.399Z,16.70
2017-08-11T01:20:52.025Z,16.70
2017-08-11T01:23:19.498Z,16.70
2017-08-11T01:25:46.997Z,16.70
2017-08-11T01:28:14.473Z,16.70
2017-08-11T01:30:42.804Z,16.70
2017-08-11T01:33:10.309Z,16.70
2017-08-11T01:35:38.569Z,16.70
2017-08-11T01:38:06.041Z,16.70
2017-08-11T01:40:34.342Z,16.70
2017-08-11T01:43:01.807Z,16.70
2017-08-11T01:45:29.267Z,16.70
2017-08-11T01:47:56.741Z,16.60
2017-08-11T01:50:24.229Z,16.60
2017-08-11T01:52:51.886Z,16.50
2017-08-11T01:55:19.355Z,16.50
2017-08-11T01:57:47.597Z,16.50
2017-08-11T02:00:15.094Z,16.50
2017-08-11T02:02:43.449Z,16.50
2017-08-11T02:05:10.953Z,16.40
2017-08-11T02:07:38.418Z,16.40
2017-08-11T02:10:06.484Z,16.40
2017-08-11T02:12:33.970Z,16.40
2017-08-11T02:15:01.438Z,16.40
2017-08-11T02:17:28.993Z,16.40
2017-08-11T02:19:56.482Z,16.40
2017-08-11T02:22:24.713Z,16.40
2017-08-11T02:24:52.185Z,16.30
2017-08-11T02:27:19.649Z,16.40
2017-08-11T02:29:47.129Z,16.30
2017-08-11T02:32:15.361Z,16.40
2017-08-11T02:34:42.842Z,16.30
2017-08-11T02:37:10.306Z,16.40
2017-08-11T02:39:38.570Z,16.40
2017-08-11T02:42:06.033Z,16.40
2017-08-11T02:44:33.508Z,16.40
2017-08-11T02:47:01.776Z,16.30
2017-08-11T02:49:29.237Z,16.30
2017-08-11T02:51:57.456Z,16.30
2017-08-11T02:54:24.944Z,16.30
2017-08-11T02:56:52.435Z,16.30
2017-08-11T02:59:20.665Z,16.30
2017-08-11T03:01:48.153Z,16.30
2017-08-11T03:04:16.106Z,16.30
2017-08-11T03:06:43.572Z,16.30
2017-08-11T03:09:11.822Z,16.30
2017-08-11T03:11:39.289Z,16.30
2017-08-11T03:14:06.764Z,16.30
2017-08-11T03:16:35.101Z,16.40
2017-08-11T03:19:02.592Z,16.30
2017-08-11T03:21:30.055Z,16.40
2017-08-11T03:23:57.532Z,16.40
2017-08-11T03:26:25.014Z,16.40
2017-08-11T03:28:52.492Z,16.40
2017-08-11T03:31:19.969Z,16.40
2017-08-11T03:33:47.439Z,16.40
2017-08-11T03:36:14.913Z,16.40
2017-08-11T03:38:42.410Z,16.40
2017-08-11T03:41:09.906Z,16.50
2017-08-11T03:43:37.388Z,16.50
2017-08-11T03:46:04.851Z,16.50
2017-08-11T03:48:32.337Z,16.60
2017-08-11T03:50:59.816Z,16.60
2017-08-11T03:53:27.390Z,16.60
2017-08-11T03:55:55.634Z,16.60
2017-08-11T03:58:23.105Z,16.60
2017-08-11T04:00:50.703Z,16.60
2017-08-11T04:03:18.190Z,16.50
2017-08-11T04:05:45.682Z,16.60
2017-08-11T04:08:13.154Z,16.50
2017-08-11T04:10:41.419Z,16.40
2017-08-11T04:13:08.965Z,16.40
2017-08-11T04:15:36.433Z,16.40
2017-08-11T04:18:03.960Z,16.40
2017-08-11T04:20:31.418Z,16.40
2017-08-11T04:22:58.929Z,16.40
2017-08-11T04:25:27.258Z,16.50
2017-08-11T04:27:54.744Z,16.50
2017-08-11T04:30:22.245Z,16.50
2017-08-11T04:32:49.829Z,16.50
2017-08-11T04:35:17.325Z,16.50
2017-08-11T04:37:45.580Z,16.50
2017-08-11T04:40:13.045Z,16.40
2017-08-11T04:42:40.629Z,16.40
2017-08-11T04:45:08.873Z,16.40
2017-08-11T04:47:36.345Z,16.40
2017-08-11T04:50:03.826Z,16.40
2017-08-11T04:52:32.133Z,16.40
2017-08-11T04:54:59.617Z,16.40
2017-08-11T04:57:27.086Z,16.40
2017-08-11T04:59:54.572Z,16.40
2017-08-11T05:02:22.036Z,16.40
2017-08-11T05:04:49.521Z,16.40
2017-08-11T05:07:16.977Z,16.50
2017-08-11T05:09:44.562Z,16.50
2017-08-11T05:12:12.042Z,16.60
2017-08-11T05:14:39.508Z,16.60
2017-08-11T05:17:07.753Z,16.40
2017-08-11T05:19:35.384Z,16.40
2017-08-11T05:22:02.865Z,16.50
2017-08-11T05:24:30.338Z,16.40
2017-08-11T05:26:57.801Z,16.40
2017-08-11T05:29:26.043Z,16.40
2017-08-11T05:31:53.520Z,16.30
2017-08-11T05:34:20.998Z,16.30
2017-08-11T05:36:49.231Z,16.40
2017-08-11T05:39:16.721Z,16.40
2017-08-11T05:41:45.004Z,16.40
2017-08-11T05:44:12.464Z,16.40
2017-08-11T05:46:40.710Z,16.50
2017-08-11T05:49:08.661Z,16.50
2017-08-11T05:51:36.143Z,16.40
2017-08-11T05:54:03.624Z,16.50
2017-08-11T05:56:31.862Z,16.50
2017-08-11T05:58:59.342Z,16.50
2017-08-11T06:01:27.587Z,16.60
2017-08-11T06:03:55.061Z,16.60
2017-08-11T06:06:22.556Z,16.60
2017-08-11T06:08:50.042Z,16.70
2017-08-11T06:11:17.497Z,16.70
2017-08-11T06:13:44.985Z,16.70
2017-08-11T06:16:12.537Z,16.80
2017-08-11T06:18:40.025Z,16.80
2017-08-11T06:21:08.265Z,16.90
2017-08-11T06:23:35.754Z,16.80
2017-08-11T06:26:03.229Z,16.90
2017-08-11T06:28:31.569Z,16.80
2017-08-11T06:30:59.051Z,16.80
2017-08-11T06:33:27.281Z,16.80
2017-08-11T06:35:54.782Z,16.70
2017-08-11T06:38:23.205Z,16.80
2017-08-11T06:40:50.691Z,16.80
2017-08-11T06:43:18.220Z,16.90
2017-08-11T06:45:45.697Z,17.00
2017-08-11T06:48:13.184Z,17.00
2017-08-11T06:50:40.733Z,17.10
2017-08-11T06:53:08.262Z,17.20
2017-08-11T06:55:35.877Z,17.30
2017-08-11T06:58:04.130Z,17.20
2017-08-11T07:00:31.626Z,17.20
2017-08-11T07:03:00.161Z,17.30
2017-08-11T07:05:27.858Z,17.30
2017-08-11T07:07:55.355Z,17.30
2017-08-11T07:10:22.865Z,17.30
2017-08-11T07:12:50.357Z,17.20
2017-08-11T07:15:17.937Z,17.20
2017-08-11T07:17:45.410Z,17.20
2017-08-11T07:20:12.886Z,17.20
2017-08-11T07:22:41.332Z,17.20
2017-08-11T07:25:08.894Z,17.20
2017-08-11T07:27:36.378Z,17.20
2017-08-11T07:30:04.601Z,17.20
2017-08-11T07:32:33.037Z,17.20
2017-08-11T07:35:00.599Z,17.30
2017-08-11T07:37:28.834Z,17.30
2017-08-11T07:39:56.408Z,17.30
2017-08-11T07:42:23.889Z,17.30
2017-08-11T07:44:52.130Z,17.40
2017-08-11T07:47:19.605Z,17.40
2017-08-11T07:49:47.846Z,17.50
2017-08-11T07:52:15.333Z,17.40
2017-08-11T07:54:42.852Z,17.40
2017-08-11T07:57:10.353Z,17.50
2017-08-11T07:59:37.830Z,17.40
2017-08-11T08:02:05.294Z,17.40
2017-08-11T08:04:32.835Z,17.40
2017-08-11T08:07:01.093Z,17.50
2017-08-11T08:09:29.049Z,17.40
2017-08-11T08:11:56.517Z,17.50
2017-08-11T08:14:23.995Z,17.40
2017-08-11T08:16:52.285Z,17.40
2017-08-11T08:19:20.706Z,17.40
2017-08-11T08:21:48.186Z,17.50
2017-08-11T08:24:15.670Z,17.50
2017-08-11T08:26:43.925Z,17.60
2017-08-11T08:29:11.482Z,17.60
2017-08-11T08:31:38.941Z,17.60
2017-08-11T08:34:07.214Z,17.50
2017-08-11T08:36:34.778Z,17.50
2017-08-11T08:39:02.241Z,17.50
2017-08-11T08:41:30.474Z,17.60
2017-08-11T08:43:58.013Z,17.60
2017-08-11T08:46:25.484Z,17.70
2017-08-11T08:48:52.946Z,17.70
2017-08-11T08:51:20.459Z,17.70
2017-08-11T08:53:48.689Z,17.70
2017-08-11T08:56:16.185Z,17.60
2017-08-11T08:58:44.631Z,17.70
2017-08-11T09:01:12.105Z,17.70
2017-08-11T09:03:39.608Z,17.80
2017-08-11T09:06:07.097Z,17.80
2017-08-11T09:08:34.786Z,17.80
2017-08-11T09:11:03.213Z,18.00
2017-08-11T09:13:30.694Z,18.00
2017-08-11T09:15:58.839Z,18.10
2017-08-11T09:18:26.318Z,18.10
2017-08-11T09:20:53.860Z,18.10
2017-08-11T09:23:21.477Z,18.10
2017-08-11T09:26:02.468Z,18.00
2017-08-11T09:28:42.295Z,18.00
2017-08-11T09:31:22.505Z,18.10
2017-08-11T09:34:11.530Z,18.10
2017-08-11T09:36:39.932Z,18.10
2017-08-11T09:39:07.416Z,18.10
2017-08-11T09:41:34.907Z,18.20
2017-08-11T09:44:03.229Z,18.40
2017-08-11T09:46:30.721Z,18.40
2017-08-11T09:48:59.204Z,18.40
2017-08-11T09:51:26.869Z,18.40
2017-08-11T09:53:54.413Z,18.40
2017-08-11T09:56:21.873Z,18.40
2017-08-11T09:58:49.353Z,18.40
2017-08-11T10:01:17.665Z,18.40
2017-08-11T10:03:45.145Z,18.40
2017-08-11T10:06:12.630Z,18.40
2017-08-11T10:08:40.102Z,18.40
2017-08-11T10:11:08.353Z,18.50
2017-08-11T10:13:35.822Z,18.40
2017-08-11T10:16:03.296Z,18.40
2017-08-11T10:18:31.539Z,18.40
2017-08-11T10:20:59.009Z,18.40
2017-08-11T10:23:27.283Z,18.50
2017-08-11T10:25:54.845Z,18.50
2017-08-11T10:28:23.083Z,18.60
2017-08-11T10:30:50.567Z,18.60
2017-08-11T10:33:18.774Z,18.70
2017-08-11T10:35:47.007Z,18.70
2017-08-11T10:38:14.682Z,18.70
2017-08-11T10:40:42.148Z,18.60
2017-08-11T10:43:10.402Z,18.60
2017-08-11T10:45:37.889Z,18.60
2017-08-11T10:48:06.114Z,18.50
2017-08-11T10:50:33.599Z,18.50
2017-08-11T10:53:01.090Z,18.40
2017-08-11T10:55:28.567Z,18.40
2017-08-11T10:57:56.031Z,18.30
2017-08-11T11:00:23.598Z,18.30
2017-08-11T11:02:51.183Z,18.20
2017-08-11T11:05:18.649Z,18.20
2017-08-11T11:07:46.120Z,18.30
2017-08-11T11:10:14.345Z,18.30
2017-08-11T11:12:41.826Z,18.30
2017-08-11T11:15:09.353Z,18.40
2017-08-11T11:17:36.840Z,18.40
2017-08-11T11:20:04.318Z,18.40
2017-08-11T11:22:32.588Z,18.40
2017-08-11T11:25:00.049Z,18.40
2017-08-11T11:27:28.273Z,18.40
2017-08-11T11:29:55.745Z,18.40
2017-08-11T11:32:23.210Z,18.50
2017-08-11T11:34:50.695Z,18.50
2017-08-11T11:37:18.932Z,18.70
2017-08-11T11:39:46.394Z,18.60
2017-08-11T11:42:13.865Z,18.70
2017-08-11T11:44:41.322Z,18.80
2017-08-11T11:47:08.822Z,18.70
2017-08-11T11:49:36.284Z,18.80
2017-08-11T11:52:03.745Z,18.90
2017-08-11T11:54:31.216Z,19.00
2017-08-11T11:56:58.713Z,18.90
